createdAt,value
2019-05-21T00:00:56.543Z,29.50
2019-05-21T00:03:26.246Z,31.53
2019-05-21T00:05:56.209Z,34.17
2019-05-21T00:08:26.128Z,32.10
2019-05-21T00:10:55.979Z,30.87
2019-05-21T00:13:26.021Z,32.13
2019-05-21T00:15:56.636Z,33.03
2019-05-21T00:18:26.643Z,34.83
2019-05-21T00:20:56.437Z,32.83
2019-05-21T00:23:26.238Z,31.30
2019-05-21T00:25:55.988Z,32.63
2019-05-21T00:28:42.391Z,34.23
2019-05-21T00:31:47.770Z,32.67
2019-05-21T00:34:53.128Z,33.70
2019-05-21T00:37:58.822Z,37.63
2019-05-21T00:41:04.103Z,33.00
2019-05-21T00:43:44.416Z,32.60
2019-05-21T00:46:14.301Z,32.07
2019-05-21T00:48:44.057Z,31.37
2019-05-21T00:51:13.885Z,29.23
2019-05-21T00:53:43.590Z,30.60
2019-05-21T00:56:13.382Z,26.70
2019-05-21T00:58:43.064Z,26.47
2019-05-21T01:01:13.149Z,25.43
2019-05-21T01:03:43.505Z,25.13
2019-05-21T01:06:13.474Z,29.00
2019-05-21T01:08:43.271Z,24.60
2019-05-21T01:11:13.730Z,24.50
2019-05-21T01:13:43.528Z,23.10
2019-05-21T01:16:13.862Z,25.00
2019-05-21T01:18:43.907Z,20.50
2019-05-21T01:21:14.031Z,21.37
2019-05-21T01:23:44.066Z,24.17
2019-05-21T01:26:13.922Z,23.40
2019-05-21T01:28:43.657Z,20.77
2019-05-21T01:31:13.374Z,22.50
2019-05-21T01:33:43.334Z,19.77
2019-05-21T01:36:13.097Z,20.40
2019-05-21T01:38:42.877Z,20.47
2019-05-21T01:41:12.568Z,24.00
2019-05-21T01:43:42.567Z,20.20
2019-05-21T01:46:12.345Z,20.43
2019-05-21T01:48:42.191Z,23.73
2019-05-21T01:51:12.205Z,19.57
2019-05-21T01:53:41.918Z,23.10
2019-05-21T01:56:11.615Z,21.37
2019-05-21T01:58:41.492Z,21.27
2019-05-21T02:01:11.379Z,18.47
2019-05-21T02:03:41.295Z,18.23
2019-05-21T02:06:11.179Z,19.87
2019-05-21T02:08:40.983Z,17.70
2019-05-21T02:11:10.946Z,21.27
2019-05-21T02:13:40.959Z,22.57
2019-05-21T02:16:11.110Z,19.50
2019-05-21T02:18:41.455Z,20.37
2019-05-21T02:21:11.331Z,21.43
2019-05-21T02:23:41.397Z,21.13
2019-05-21T02:26:11.098Z,20.53
2019-05-21T02:28:40.862Z,19.93
2019-05-21T02:31:10.611Z,17.83
2019-05-21T02:33:40.556Z,20.67
2019-05-21T02:36:10.686Z,17.13
2019-05-21T02:38:40.356Z,16.77
2019-05-21T02:41:10.320Z,18.40
2019-05-21T02:43:40.245Z,17.37
2019-05-21T02:46:10.211Z,17.03
2019-05-21T02:48:40.028Z,18.83
2019-05-21T02:51:10.267Z,14.87
2019-05-21T02:53:40.049Z,14.03
2019-05-21T02:56:09.941Z,15.33
2019-05-21T02:58:39.782Z,14.50
2019-05-21T03:01:19.233Z,15.03
2019-05-21T03:03:49.155Z,15.17
2019-05-21T03:06:19.273Z,14.23
2019-05-21T03:08:49.138Z,16.53
2019-05-21T03:11:19.078Z,15.70
2019-05-21T03:13:48.886Z,13.87
2019-05-21T03:16:18.676Z,18.00
2019-05-21T03:18:48.486Z,14.47
2019-05-21T03:21:18.430Z,14.63
2019-05-21T03:23:48.632Z,13.77
2019-05-21T03:26:18.408Z,11.53
2019-05-21T03:28:48.292Z,11.03
2019-05-21T03:31:18.310Z,13.43
2019-05-21T03:33:48.067Z,10.97
2019-05-21T03:36:32.922Z,10.57
2019-05-21T03:38:49.404Z,10.57
2019-05-21T03:41:19.157Z,8.83
2019-05-21T03:43:49.222Z,9.03
2019-05-21T03:46:19.291Z,9.67
2019-05-21T03:48:49.189Z,7.40
2019-05-21T03:51:19.257Z,8.23
2019-05-21T03:53:49.200Z,9.07
2019-05-21T03:56:18.898Z,6.77
2019-05-21T03:58:49.022Z,6.50
2019-05-21T04:01:18.955Z,6.80
2019-05-21T04:03:48.730Z,7.33
2019-05-21T04:06:18.585Z,6.63
2019-05-21T04:08:48.411Z,6.27
2019-05-21T04:11:18.198Z,6.53
2019-05-21T04:13:47.886Z,6.80
2019-05-21T04:16:42.619Z,6.33
2019-05-21T04:19:28.154Z,5.80
2019-05-21T04:21:57.970Z,6.67
2019-05-21T04:24:27.719Z,6.10
2019-05-21T04:26:57.798Z,5.60
2019-05-21T04:29:27.509Z,5.60
2019-05-21T04:31:57.348Z,6.43
2019-05-21T04:34:27.018Z,5.53
2019-05-21T04:37:09.725Z,5.40
2019-05-21T04:39:30.724Z,5.27
2019-05-21T04:42:00.546Z,6.07
2019-05-21T04:44:30.459Z,8.43
2019-05-21T04:47:00.166Z,6.40
2019-05-21T04:49:30.101Z,6.00
2019-05-21T04:52:00.041Z,5.70
2019-05-21T04:54:29.725Z,5.50
2019-05-21T04:56:59.677Z,6.77
2019-05-21T04:59:29.352Z,5.13
2019-05-21T05:01:59.516Z,5.50
2019-05-21T05:04:29.564Z,5.07
2019-05-21T05:06:59.615Z,4.37
2019-05-21T05:09:29.307Z,4.50
2019-05-21T05:11:59.290Z,4.77
2019-05-21T05:14:29.103Z,6.43
2019-05-21T05:16:58.802Z,5.73
2019-05-21T05:19:28.479Z,6.03
2019-05-21T05:21:58.466Z,5.57
2019-05-21T05:24:28.403Z,4.70
2019-05-21T05:26:58.129Z,4.80
2019-05-21T05:29:27.807Z,4.73
2019-05-21T05:31:57.550Z,14.00
2019-05-21T05:34:27.320Z,5.20
2019-05-21T05:37:03.230Z,4.50
2019-05-21T05:39:33.244Z,4.37
2019-05-21T05:42:03.202Z,4.10
2019-05-21T05:44:32.874Z,4.27
2019-05-21T05:47:02.839Z,4.90
2019-05-21T05:49:37.385Z,4.13
2019-05-21T05:52:07.102Z,6.10
2019-05-21T05:54:36.786Z,6.43
2019-05-21T05:57:06.490Z,5.63
2019-05-21T05:59:36.318Z,4.93
2019-05-21T06:02:06.169Z,6.40
2019-05-21T06:04:35.970Z,5.23
2019-05-21T06:07:06.349Z,6.77
2019-05-21T06:09:36.297Z,5.30
2019-05-21T06:12:06.405Z,4.50
2019-05-21T06:14:36.175Z,5.70
2019-05-21T06:17:06.366Z,6.87
2019-05-21T06:19:36.069Z,3.73
2019-05-21T06:22:05.856Z,5.00
2019-05-21T06:24:35.568Z,5.77
2019-05-21T06:27:05.658Z,4.20
2019-05-21T06:29:39.198Z,5.77
2019-05-21T06:32:07.287Z,6.07
2019-05-21T06:34:37.002Z,5.10
2019-05-21T06:37:07.399Z,4.60
2019-05-21T06:39:37.280Z,5.47
2019-05-21T06:42:06.971Z,5.47
2019-05-21T06:44:36.981Z,5.03
2019-05-21T06:47:06.857Z,4.80
2019-05-21T06:49:36.858Z,4.23
2019-05-21T06:52:06.966Z,3.37
2019-05-21T06:54:36.798Z,4.00
2019-05-21T06:57:06.497Z,3.93
2019-05-21T06:59:36.362Z,3.43
2019-05-21T07:02:06.505Z,3.60
2019-05-21T07:04:36.321Z,3.33
2019-05-21T07:07:06.100Z,3.40
2019-05-21T07:09:35.796Z,3.47
2019-05-21T07:12:05.733Z,2.80
2019-05-21T07:14:35.427Z,2.90
2019-05-21T07:17:05.271Z,2.90
2019-05-21T07:19:34.979Z,5.10
2019-05-21T07:22:12.491Z,3.20
2019-05-21T07:24:36.479Z,2.60
2019-05-21T07:27:06.205Z,2.60
2019-05-21T07:29:35.935Z,2.60
2019-05-21T07:32:05.756Z,2.40
2019-05-21T07:34:35.421Z,2.57
2019-05-21T07:37:05.127Z,2.50
2019-05-21T07:39:35.060Z,2.80
2019-05-21T07:42:04.916Z,4.07
2019-05-21T07:44:34.840Z,3.47
2019-05-21T07:47:04.691Z,2.10
2019-05-21T07:49:34.730Z,2.57
2019-05-21T07:52:04.869Z,2.10
2019-05-21T07:54:34.618Z,2.20
2019-05-21T07:57:04.460Z,2.00
2019-05-21T07:59:34.472Z,2.33
2019-05-21T08:02:04.238Z,2.90
2019-05-21T08:04:33.967Z,1.90
2019-05-21T08:07:03.838Z,1.90
2019-05-21T08:09:33.840Z,1.77
2019-05-21T08:12:22.724Z,1.60
2019-05-21T08:14:35.092Z,1.90
2019-05-21T08:17:05.431Z,1.43
2019-05-21T08:19:35.420Z,1.40
2019-05-21T08:22:05.202Z,2.83
2019-05-21T08:24:34.882Z,1.87
2019-05-21T08:27:05.259Z,1.70
2019-05-21T08:29:34.980Z,4.77
2019-05-21T08:32:04.827Z,1.47
2019-05-21T08:34:34.493Z,1.60
2019-05-21T08:37:06.202Z,2.93
2019-05-21T08:39:35.937Z,1.47
2019-05-21T08:42:05.710Z,2.73
2019-05-21T08:44:35.707Z,1.93
2019-05-21T08:47:05.554Z,1.50
2019-05-21T08:49:35.645Z,1.90
2019-05-21T08:52:05.498Z,1.60
2019-05-21T08:54:47.518Z,1.60
2019-05-21T08:57:17.458Z,1.50
2019-05-21T08:59:47.294Z,2.83
2019-05-21T09:02:17.262Z,1.60
2019-05-21T09:04:47.096Z,3.00
2019-05-21T09:07:17.211Z,2.07
2019-05-21T09:09:50.409Z,1.30
2019-05-21T09:12:19.417Z,1.93
2019-05-21T09:14:49.187Z,1.20
2019-05-21T09:17:19.137Z,3.10
2019-05-21T09:19:49.101Z,1.20
2019-05-21T09:22:18.791Z,1.10
2019-05-21T09:24:48.726Z,1.00
2019-05-21T09:27:18.501Z,0.90
2019-05-21T09:29:48.270Z,2.00
2019-05-21T09:32:18.058Z,1.60
2019-05-21T09:34:49.364Z,3.60
2019-05-21T09:37:20.377Z,2.07
2019-05-21T09:39:50.606Z,1.27
2019-05-21T09:42:20.378Z,1.63
2019-05-21T09:44:50.117Z,1.20
2019-05-21T09:47:19.930Z,6.50
2019-05-21T09:49:49.939Z,1.43
2019-05-21T09:52:19.883Z,2.20
2019-05-21T09:54:49.839Z,1.33
2019-05-21T09:57:26.366Z,2.30
2019-05-21T10:00:02.042Z,3.10
2019-05-21T10:02:33.011Z,2.03
2019-05-21T10:05:03.036Z,1.43
2019-05-21T10:07:39.926Z,1.10
2019-05-21T10:10:05.651Z,0.97
2019-05-21T10:12:35.838Z,1.20
2019-05-21T10:15:06.027Z,1.30
2019-05-21T10:17:35.726Z,1.50
2019-05-21T10:20:06.161Z,1.10
2019-05-21T10:22:35.910Z,2.40
2019-05-21T10:25:06.026Z,1.33
2019-05-21T10:27:35.798Z,1.33
2019-05-21T10:30:06.318Z,1.20
2019-05-21T10:32:36.154Z,1.40
2019-05-21T10:35:06.195Z,1.30
2019-05-21T10:37:36.446Z,1.20
2019-05-21T10:40:06.539Z,2.20
2019-05-21T10:42:36.219Z,3.57
2019-05-21T10:45:07.123Z,2.17
2019-05-21T10:47:36.819Z,2.07
2019-05-21T10:50:06.873Z,1.83
2019-05-21T10:52:36.630Z,1.70
2019-05-21T10:55:06.686Z,3.40
2019-05-21T10:57:36.789Z,4.67
2019-05-21T11:00:08.584Z,2.00
2019-05-21T11:02:44.085Z,2.33
2019-05-21T11:05:21.906Z,1.73
2019-05-21T11:07:51.762Z,2.40
2019-05-21T11:10:21.510Z,3.33
2019-05-21T11:12:51.294Z,1.20
2019-05-21T11:15:21.233Z,1.40
2019-05-21T11:18:09.259Z,1.40
2019-05-21T11:20:22.589Z,2.13
2019-05-21T11:22:52.415Z,1.57
2019-05-21T11:25:22.458Z,1.83
2019-05-21T11:27:52.554Z,1.70
2019-05-21T11:30:22.439Z,2.37
2019-05-21T11:32:52.267Z,1.47
2019-05-21T11:35:22.109Z,1.40
2019-05-21T11:37:51.882Z,1.57
2019-05-21T11:40:22.337Z,1.23
2019-05-21T11:42:53.071Z,1.77
2019-05-21T11:45:32.281Z,1.90
2019-05-21T11:47:55.109Z,1.70
2019-05-21T11:50:24.987Z,2.67
2019-05-21T11:52:54.724Z,16.07
2019-05-21T11:55:24.431Z,3.00
2019-05-21T11:57:54.202Z,2.07
2019-05-21T12:00:25.881Z,5.43
2019-05-21T12:02:55.942Z,1.73
2019-05-21T12:05:25.898Z,1.70
2019-05-21T12:07:55.592Z,2.33
2019-05-21T12:10:25.674Z,2.37
2019-05-21T12:12:55.487Z,2.33
2019-05-21T12:15:25.259Z,4.20
2019-05-21T12:17:55.225Z,2.10
2019-05-21T12:20:35.968Z,1.90
2019-05-21T12:22:56.805Z,2.10
2019-05-21T12:25:26.909Z,2.10
2019-05-21T12:27:56.846Z,2.50
2019-05-21T12:30:26.664Z,4.83
2019-05-21T12:32:56.826Z,3.03
2019-05-21T12:35:26.696Z,1.77
2019-05-21T12:37:56.822Z,2.00
2019-05-21T12:40:26.674Z,2.63
2019-05-21T12:42:56.602Z,2.57
2019-05-21T12:45:26.325Z,2.20
2019-05-21T12:47:56.255Z,3.07
2019-05-21T12:50:26.267Z,2.00
2019-05-21T12:52:56.291Z,2.30
2019-05-21T12:55:26.194Z,2.40
2019-05-21T12:57:55.886Z,1.97
2019-05-21T13:00:29.901Z,2.10
2019-05-21T13:02:59.629Z,2.40
2019-05-21T13:05:29.690Z,1.87
2019-05-21T13:07:59.481Z,2.10
2019-05-21T13:10:29.560Z,2.40
2019-05-21T13:12:59.475Z,2.10
2019-05-21T13:15:29.252Z,1.87
2019-05-21T13:17:59.315Z,1.70
2019-05-21T13:20:29.069Z,2.97
2019-05-21T13:22:59.131Z,2.10
2019-05-21T13:25:28.975Z,2.67
2019-05-21T13:27:58.669Z,2.07
2019-05-21T13:30:28.845Z,2.60
2019-05-21T13:32:58.877Z,2.50
2019-05-21T13:35:28.940Z,2.13
2019-05-21T13:37:59.001Z,2.00
2019-05-21T13:40:29.127Z,2.00
2019-05-21T13:42:58.866Z,2.20
2019-05-21T13:45:28.657Z,1.73
2019-05-21T13:47:58.867Z,2.33
2019-05-21T13:50:28.682Z,1.90
2019-05-21T13:52:58.503Z,1.93
2019-05-21T13:55:28.349Z,2.20
2019-05-21T13:57:58.071Z,2.07
2019-05-21T14:00:31.966Z,2.30
2019-05-21T14:03:01.734Z,3.17
2019-05-21T14:05:31.515Z,2.50
2019-05-21T14:08:01.447Z,2.80
2019-05-21T14:10:31.786Z,2.40
2019-05-21T14:13:01.795Z,2.50
2019-05-21T14:15:31.866Z,2.60
2019-05-21T14:18:01.862Z,2.40
2019-05-21T14:20:31.643Z,2.70
2019-05-21T14:23:01.466Z,3.73
2019-05-21T14:25:31.303Z,2.77
2019-05-21T14:28:01.054Z,2.70
2019-05-21T14:30:31.017Z,2.80
2019-05-21T14:33:00.824Z,4.07
2019-05-21T14:35:30.782Z,2.70
2019-05-21T14:38:00.550Z,2.70
2019-05-21T14:40:32.912Z,2.70
2019-05-21T14:43:02.688Z,3.27
2019-05-21T14:45:34.316Z,2.93
2019-05-21T14:48:04.238Z,4.50
2019-05-21T14:50:34.323Z,4.60
2019-05-21T14:53:04.434Z,3.47
2019-05-21T14:55:34.197Z,3.50
2019-05-21T14:58:04.338Z,4.03
2019-05-21T15:00:36.377Z,4.07
2019-05-21T15:03:06.350Z,4.73
2019-05-21T15:05:36.230Z,4.33
2019-05-21T15:08:06.100Z,5.10
2019-05-21T15:10:47.980Z,4.57
2019-05-21T15:13:07.877Z,4.23
2019-05-21T15:15:38.054Z,4.80
2019-05-21T15:18:07.902Z,5.53
2019-05-21T15:20:51.960Z,4.50
2019-05-21T15:23:21.795Z,5.17
2019-05-21T15:25:51.553Z,4.00
2019-05-21T15:28:21.266Z,4.60
2019-05-21T15:30:51.093Z,5.30
2019-05-21T15:33:20.889Z,4.93
2019-05-21T15:35:50.811Z,4.57
2019-05-21T15:38:21.147Z,5.70
2019-05-21T15:41:08.347Z,4.17
2019-05-21T15:43:22.611Z,6.27
2019-05-21T15:45:52.883Z,5.57
2019-05-21T15:48:26.382Z,4.97
2019-05-21T15:50:53.978Z,4.90
2019-05-21T15:53:23.950Z,5.37
2019-05-21T15:55:53.921Z,5.23
2019-05-21T15:58:26.789Z,5.83
2019-05-21T16:00:55.184Z,6.03
2019-05-21T16:03:25.163Z,5.90
2019-05-21T16:05:55.162Z,5.97
2019-05-21T16:08:25.246Z,5.97
2019-05-21T16:10:55.071Z,5.90
2019-05-21T16:13:25.036Z,6.30
2019-05-21T16:15:54.842Z,5.13
2019-05-21T16:18:24.535Z,5.43
2019-05-21T16:20:54.475Z,5.93
2019-05-21T16:23:24.476Z,6.00
2019-05-21T16:25:54.419Z,7.53
2019-05-21T16:28:24.112Z,6.67
2019-05-21T16:30:54.355Z,5.73
2019-05-21T16:33:24.246Z,7.13
2019-05-21T16:35:55.117Z,13.77
2019-05-21T16:38:24.815Z,22.53
2019-05-21T16:40:54.944Z,15.33
2019-05-21T16:43:25.197Z,16.13
2019-05-21T16:45:54.949Z,17.03
2019-05-21T16:48:24.896Z,8.80
2019-05-21T16:50:54.594Z,8.73
2019-05-21T16:53:24.543Z,7.17
2019-05-21T16:55:54.644Z,7.17
2019-05-21T16:58:24.399Z,7.10
2019-05-21T17:00:54.239Z,7.23
2019-05-21T17:03:24.021Z,6.93
2019-05-21T17:05:54.594Z,7.57
2019-05-21T17:08:24.391Z,8.90
2019-05-21T17:10:54.145Z,7.30
2019-05-21T17:13:23.884Z,14.43
2019-05-21T17:15:54.058Z,7.60
2019-05-21T17:18:23.777Z,8.20
2019-05-21T17:20:53.911Z,6.90
2019-05-21T17:23:23.678Z,7.57
2019-05-21T17:25:53.598Z,8.00
2019-05-21T17:28:23.374Z,8.07
2019-05-21T17:30:53.161Z,9.90
2019-05-21T17:33:22.930Z,8.30
2019-05-21T17:35:53.059Z,8.10
2019-05-21T17:38:24.669Z,7.37
2019-05-21T17:40:54.592Z,7.63
2019-05-21T17:43:24.590Z,9.20
2019-05-21T17:45:54.303Z,9.73
2019-05-21T17:48:24.155Z,9.07
2019-05-21T17:50:53.958Z,9.90
2019-05-21T17:53:23.744Z,10.20
2019-05-21T17:55:53.472Z,8.97
2019-05-21T17:58:23.696Z,8.00
2019-05-21T18:00:58.314Z,9.07
2019-05-21T18:03:27.998Z,8.07
2019-05-21T18:05:58.371Z,7.83
2019-05-21T18:08:28.564Z,8.33
2019-05-21T18:10:59.026Z,7.47
2019-05-21T18:13:29.416Z,9.40
2019-05-21T18:15:59.189Z,10.47
2019-05-21T18:18:29.198Z,11.10
2019-05-21T18:20:59.760Z,9.70
2019-05-21T18:23:29.819Z,10.70
2019-05-21T18:26:00.138Z,9.93
2019-05-21T18:28:30.153Z,10.87
2019-05-21T18:31:00.459Z,12.77
2019-05-21T18:33:30.404Z,12.13
2019-05-21T18:36:00.404Z,9.30
2019-05-21T18:38:30.566Z,10.13
2019-05-21T18:41:01.819Z,8.73
2019-05-21T18:43:31.671Z,8.37
2019-05-21T18:46:02.000Z,10.13
2019-05-21T18:48:32.117Z,11.50
2019-05-21T18:51:19.337Z,10.43
2019-05-21T18:53:49.115Z,8.40
2019-05-21T18:56:18.824Z,8.33
2019-05-21T18:58:48.641Z,9.17
2019-05-21T19:01:18.954Z,9.43
2019-05-21T19:03:49.241Z,11.53
2019-05-21T19:06:19.271Z,13.47
2019-05-21T19:08:49.130Z,11.07
2019-05-21T19:11:19.251Z,10.93
2019-05-21T19:13:53.465Z,20.20
2019-05-21T19:16:23.619Z,19.67
2019-05-21T19:18:53.435Z,18.23
2019-05-21T19:21:23.751Z,38.17
2019-05-21T19:23:54.491Z,17.07
2019-05-21T19:26:24.276Z,9.73
2019-05-21T19:28:54.024Z,10.40
2019-05-21T19:31:23.718Z,8.93
2019-05-21T19:33:53.465Z,7.63
2019-05-21T19:36:23.363Z,8.17
2019-05-21T19:38:53.287Z,7.17
2019-05-21T19:41:23.340Z,9.27
2019-05-21T19:43:53.031Z,9.47
2019-05-21T19:46:23.057Z,8.07
2019-05-21T19:48:52.983Z,8.30
2019-05-21T19:51:22.785Z,8.10
2019-05-21T19:53:52.920Z,8.33
2019-05-21T19:56:22.844Z,7.53
2019-05-21T19:58:52.639Z,8.20
2019-05-21T20:01:22.971Z,7.23
2019-05-21T20:03:52.971Z,8.93
2019-05-21T20:06:24.170Z,7.17
2019-05-21T20:08:54.327Z,6.67
2019-05-21T20:11:24.116Z,7.23
2019-05-21T20:13:53.974Z,8.17
2019-05-21T20:16:24.722Z,6.97
2019-05-21T20:18:54.698Z,6.50
2019-05-21T20:21:25.251Z,8.10
2019-05-21T20:23:55.370Z,8.10
2019-05-21T20:26:27.080Z,6.30
2019-05-21T20:28:57.230Z,6.80
2019-05-21T20:31:27.290Z,6.40
2019-05-21T20:33:57.743Z,6.57
2019-05-21T20:36:28.418Z,7.83
2019-05-21T20:38:59.356Z,7.37
2019-05-21T20:41:29.667Z,8.23
2019-05-21T20:43:59.608Z,8.30
2019-05-21T20:46:29.410Z,10.23
2019-05-21T20:48:59.855Z,7.83
2019-05-21T20:51:31.077Z,9.70
2019-05-21T20:54:01.648Z,8.60
2019-05-21T20:56:31.677Z,8.60
2019-05-21T20:59:01.954Z,8.47
2019-05-21T21:01:32.331Z,10.37
2019-05-21T21:04:02.783Z,10.10
2019-05-21T21:06:35.789Z,8.10
2019-05-21T21:09:10.189Z,9.03
2019-05-21T21:11:40.597Z,7.93
2019-05-21T21:14:17.944Z,9.23
2019-05-21T21:16:44.718Z,9.73
2019-05-21T21:19:14.585Z,9.07
2019-05-21T21:21:44.778Z,8.53
2019-05-21T21:24:14.568Z,8.60
2019-05-21T21:26:44.327Z,9.13
2019-05-21T21:29:14.417Z,9.37
2019-05-21T21:31:44.982Z,8.93
2019-05-21T21:34:15.868Z,8.60
2019-05-21T21:36:45.714Z,9.93
2019-05-21T21:39:16.383Z,8.67
2019-05-21T21:41:46.719Z,8.77
2019-05-21T21:44:32.682Z,9.30
2019-05-21T21:46:49.423Z,10.40
2019-05-21T21:49:20.088Z,9.77
2019-05-21T21:51:50.066Z,9.13
2019-05-21T21:54:20.642Z,10.50
2019-05-21T21:56:50.910Z,9.87
2019-05-21T21:59:20.735Z,10.00
2019-05-21T22:01:54.265Z,9.30
2019-05-21T22:04:30.219Z,11.33
2019-05-21T22:07:00.403Z,10.17
2019-05-21T22:09:31.688Z,10.93
2019-05-21T22:12:03.669Z,13.23
2019-05-21T22:14:49.540Z,12.47
2019-05-21T22:17:09.543Z,12.27
2019-05-21T22:19:40.780Z,10.87
2019-05-21T22:22:11.684Z,12.67
2019-05-21T22:24:41.622Z,10.23
2019-05-21T22:27:11.604Z,11.73
2019-05-21T22:29:41.359Z,11.40
2019-05-21T22:32:11.282Z,12.93
2019-05-21T22:34:41.225Z,11.03
2019-05-21T22:37:14.768Z,11.73
2019-05-21T22:39:45.586Z,12.63
2019-05-21T22:42:17.606Z,10.53
2019-05-21T22:44:47.819Z,10.77
2019-05-21T22:47:17.764Z,13.90
2019-05-21T22:49:50.267Z,10.00
2019-05-21T22:52:20.092Z,10.43
2019-05-21T22:54:50.331Z,11.33
2019-05-21T22:57:20.261Z,11.20
2019-05-21T22:59:51.404Z,10.63
2019-05-21T23:02:26.238Z,11.47
2019-05-21T23:04:56.479Z,9.33
2019-05-21T23:07:27.890Z,9.93
2019-05-21T23:10:06.181Z,10.10
2019-05-21T23:12:37.868Z,10.57
2019-05-21T23:15:22.191Z,10.03
2019-05-21T23:17:41.375Z,11.07
2019-05-21T23:20:13.326Z,11.00
2019-05-21T23:22:44.945Z,10.33
2019-05-21T23:25:15.437Z,11.57
2019-05-21T23:27:45.612Z,14.93
2019-05-21T23:30:18.431Z,11.00
2019-05-21T23:32:48.539Z,10.10
2019-05-21T23:35:19.260Z,9.37
2019-05-21T23:37:50.675Z,11.60
2019-05-21T23:40:22.170Z,11.27
2019-05-21T23:42:52.015Z,11.67
2019-05-21T23:45:22.478Z,11.23
2019-05-21T23:47:52.734Z,11.37
2019-05-21T23:50:23.377Z,12.97
2019-05-21T23:52:55.238Z,11.23
2019-05-21T23:55:28.298Z,11.30
2019-05-21T23:57:58.818Z,11.90
